Murfreesboro, TN (37132)

11:47 AM CDT on July 30, 2016 (GMT -0500)
RIVERDALE | | Change Station

Elev 617 ft 35.81 °N, 86.41 °W | Updated 15 seconds ago

Mostly Cloudy
Mostly Cloudy
85.8 °F
Feels Like 100 °F
N
3.1
Wind Variable Wind from SW
Gusts 5.4 mph

Today
High -- | Low -- °F
--% Chance of Precip.
Yesterday
High -- | Low -- °F
Precip. -- in
Pressure 30.06 in
Visibility 10.0 miles
Clouds Mostly Cloudy 2200 ft
Heat Index 100 °F
Dew Point 79 °F
Humidity 81%
Rainfall 0.00 in
Snow Depth Not available.
5:51 AM 7:51 PM
Waning Crescent, 12% visible
METAR KMQY 301556Z VRB04KT 10SM BKN022 27/23 A3004 RMK AO2 T02720227 SLP177 $
Pressure 30.06 in
Visibility 10.0 miles
Clouds Mostly Cloudy 2200 ft
Heat Index 100 °F
Dew Point 79 °F
Humidity 81%
Rainfall 0.00 in
Snow Depth Not available.
5:51 AM 7:51 PM
Waning Crescent, 12% visible
METAR KMQY 301556Z VRB04KT 10SM BKN022 27/23 A3004 RMK AO2 T02720227 SLP177 $

10-Day Weather Forecast

Almanac

Astronomy

Jul. 30, 2016 Rise Set
Actual Time
Civil Twilight
Nautical Twilight
Astronomical Twilight
Moon
Length of Visible Light
Length of Day
Tomorrow will be .
, % of the Moon is Illuminated

Today's Extremes

State Highs State Lows

Community

WunderPhotos

Upload Photos

1,928,597 photos uploaded!

WunderBlog® & News

Nearby

Air Quality

  Air Quality AQ Index Pollutant
Not available.

Snow Depth

Station Depth Elevation

Earthquake Activity

City Distance Mag. Time & Date
Minimum magnitude displayed is 2.5.

Coastal Water Temperatures

Place Temperature

Stations

Nearby Weather Stations

Station Location Temp. Windchill Dew Point Humidity Wind Precip. Elev Updated Type
                   

Watches & Warnings

There are currently no watches in effect.